Wetterstation Rossbuehl

Zugriff auf die letzten 10 Werte 30 Werte 100 Werte 400 Werte

Datum_____UhrzeitWind
Mittel
Wind
min
Wind
Boe
Wind
BoeTag
Wind
Richtung
Temp1
Feuchte Station Power
type
BatterieInter
vall
SMS
JJJJ-MM-TT hh:mmkm/hmin SpitzePeak Grad °C % ID Ex.oBat Volt min St.
2020-02-22 22:36 48 48 49 290 3.9 4 2 5.80 1
2020-02-22 22:21 37 40 30 279 4.6 15 2 5.80 1
2020-02-22 22:06 35 46 30 285 6.2 17 2 5.80 1
2020-02-22 21:51 31 27 33 282 6 6 2 5.80 1
2020-02-22 21:36 33 39 36 283 6.2 6 2 5.80 1
2020-02-22 21:21 32 41 29 268 6.2 25 2 5.81 1
2020-02-22 21:06 29 24 35 268 6.4 23 2 5.80 1
2020-02-22 20:51 31 29 35 287 6.5 25 2 5.80 1
2020-02-22 20:36 26 21 32 273 6.6 25 2 5.80 1
2020-02-22 20:21 36 39 34 283 6.5 4 2 5.80 1
2020-02-22 20:06 31 36 28 274 6.5 10 2 5.80 1
2020-02-22 19:51 26 20 33 255 6.4 8 2 5.80 1
2020-02-22 19:36 29 25 33 266 6.4 17 2 5.82 1
2020-02-22 19:21 24 20 28 267 6.4 23 2 5.80 1
2020-02-22 19:06 26 23 30 267 6.5 4 2 5.80 1
2020-02-22 18:51 31 41 28 271 6.4 13 2 5.80 1
2020-02-22 18:36 25 19 33 267 6.6 25 2 5.80 1
2020-02-22 18:21 27 18 35 274 6.5 12 2 5.80 1
2020-02-22 18:06 26 23 28 268 6.6 23 2 5.80 1
2020-02-22 17:51 28 37 26 272 6.6 25 2 5.80 1